sensor_id;sensor_type;location;lat;lon;timestamp;P1;durP1;ratioP1;P2;durP2;ratioP2
29662;SDS011;16578;53.266;7.920;2023-08-24T00:01:31;3.35;;;1.50;;
29662;SDS011;16578;53.266;7.920;2023-08-24T00:03:57;2.90;;;1.98;;
29662;SDS011;16578;53.266;7.920;2023-08-24T00:06:22;2.10;;;1.73;;
29662;SDS011;16578;53.266;7.920;2023-08-24T00:08:48;2.58;;;1.60;;
29662;SDS011;16578;53.266;7.920;2023-08-24T00:11:13;2.92;;;1.70;;
29662;SDS011;16578;53.266;7.920;2023-08-24T00:13:43;1.67;;;1.58;;
29662;SDS011;16578;53.266;7.920;2023-08-24T00:16:16;4.70;;;1.83;;
29662;SDS011;16578;53.266;7.920;2023-08-24T00:18:42;2.63;;;1.70;;
29662;SDS011;16578;53.266;7.920;2023-08-24T00:21:09;2.40;;;1.50;;
29662;SDS011;16578;53.266;7.920;2023-08-24T00:23:35;2.65;;;1.70;;
29662;SDS011;16578;53.266;7.920;2023-08-24T00:26:01;2.00;;;1.80;;
29662;SDS011;16578;53.266;7.920;2023-08-24T00:28:27;2.97;;;1.83;;
29662;SDS011;16578;53.266;7.920;2023-08-24T00:30:52;3.05;;;1.65;;
29662;SDS011;16578;53.266;7.920;2023-08-24T00:33:18;2.63;;;1.80;;
29662;SDS011;16578;53.266;7.920;2023-08-24T00:35:44;3.20;;;2.10;;
29662;SDS011;16578;53.266;7.920;2023-08-24T00:38:10;2.78;;;1.60;;
29662;SDS011;16578;53.266;7.920;2023-08-24T00:40:35;2.65;;;1.60;;
29662;SDS011;16578;53.266;7.920;2023-08-24T00:43:01;2.58;;;1.42;;
29662;SDS011;16578;53.266;7.920;2023-08-24T00:45:27;1.33;;;1.23;;
29662;SDS011;16578;53.266;7.920;2023-08-24T00:47:53;2.28;;;1.58;;
29662;SDS011;16578;53.266;7.920;2023-08-24T00:50:19;2.00;;;1.80;;
29662;SDS011;16578;53.266;7.920;2023-08-24T00:52:45;2.15;;;1.90;;
29662;SDS011;16578;53.266;7.920;2023-08-24T00:55:12;2.08;;;1.55;;
29662;SDS011;16578;53.266;7.920;2023-08-24T00:57:39;1.92;;;1.80;;
29662;SDS011;16578;53.266;7.920;2023-08-24T01:00:06;2.55;;;1.65;;
29662;SDS011;16578;53.266;7.920;2023-08-24T01:02:35;2.15;;;1.38;;
29662;SDS011;16578;53.266;7.920;2023-08-24T01:05:02;5.63;;;1.52;;
29662;SDS011;16578;53.266;7.920;2023-08-24T01:07:29;2.15;;;1.65;;
29662;SDS011;16578;53.266;7.920;2023-08-24T01:09:56;1.73;;;1.58;;
29662;SDS011;16578;53.266;7.920;2023-08-24T01:12:30;1.90;;;1.40;;
29662;SDS011;16578;53.266;7.920;2023-08-24T01:15:13;1.60;;;1.50;;
29662;SDS011;16578;53.266;7.920;2023-08-24T01:17:58;2.03;;;1.50;;
29662;SDS011;16578;53.266;7.920;2023-08-24T01:20:28;2.53;;;1.95;;
29662;SDS011;16578;53.266;7.920;2023-08-24T01:22:55;1.65;;;1.50;;
29662;SDS011;16578;53.266;7.920;2023-08-24T01:25:49;3.00;;;1.60;;
29662;SDS011;16578;53.266;7.920;2023-08-24T01:28:18;1.95;;;1.73;;
29662;SDS011;16578;53.266;7.920;2023-08-24T01:30:46;2.58;;;1.58;;
29662;SDS011;16578;53.266;7.920;2023-08-24T01:33:12;1.98;;;1.30;;
29662;SDS011;16578;53.266;7.920;2023-08-24T01:35:38;4.35;;;1.70;;
29662;SDS011;16578;53.266;7.920;2023-08-24T01:38:04;2.10;;;1.85;;
29662;SDS011;16578;53.266;7.920;2023-08-24T01:40:48;2.00;;;1.90;;
29662;SDS011;16578;53.266;7.920;2023-08-24T01:43:34;3.40;;;2.10;;
29662;SDS011;16578;53.266;7.920;2023-08-24T01:46:03;2.83;;;1.60;;
29662;SDS011;16578;53.266;7.920;2023-08-24T01:48:30;4.13;;;2.10;;
29662;SDS011;16578;53.266;7.920;2023-08-24T01:50:57;2.63;;;2.00;;
29662;SDS011;16578;53.266;7.920;2023-08-24T01:53:23;4.03;;;2.00;;
29662;SDS011;16578;53.266;7.920;2023-08-24T01:55:50;3.42;;;1.75;;
29662;SDS011;16578;53.266;7.920;2023-08-24T01:58:16;1.70;;;1.60;;
29662;SDS011;16578;53.266;7.920;2023-08-24T02:00:41;3.80;;;2.03;;
29662;SDS011;16578;53.266;7.920;2023-08-24T02:03:07;2.47;;;1.80;;
29662;SDS011;16578;53.266;7.920;2023-08-24T02:05:32;1.73;;;1.63;;
29662;SDS011;16578;53.266;7.920;2023-08-24T02:07:58;2.22;;;1.80;;
29662;SDS011;16578;53.266;7.920;2023-08-24T02:10:25;2.00;;;1.60;;
29662;SDS011;16578;53.266;7.920;2023-08-24T02:12:51;2.00;;;1.77;;
29662;SDS011;16578;53.266;7.920;2023-08-24T02:15:16;1.55;;;1.45;;
29662;SDS011;16578;53.266;7.920;2023-08-24T02:17:42;3.90;;;2.17;;
29662;SDS011;16578;53.266;7.920;2023-08-24T02:20:08;3.00;;;1.70;;
29662;SDS011;16578;53.266;7.920;2023-08-24T02:22:35;1.67;;;1.58;;
29662;SDS011;16578;53.266;7.920;2023-08-24T02:25:00;1.67;;;1.58;;
29662;SDS011;16578;53.266;7.920;2023-08-24T02:27:30;2.50;;;2.00;;
29662;SDS011;16578;53.266;7.920;2023-08-24T02:29:56;1.83;;;1.65;;
29662;SDS011;16578;53.266;7.920;2023-08-24T02:32:21;2.15;;;1.83;;
29662;SDS011;16578;53.266;7.920;2023-08-24T02:34:47;3.17;;;2.20;;
29662;SDS011;16578;53.266;7.920;2023-08-24T02:37:12;3.90;;;2.13;;
29662;SDS011;16578;53.266;7.920;2023-08-24T02:39:38;2.60;;;2.00;;
29662;SDS011;16578;53.266;7.920;2023-08-24T02:42:03;2.38;;;2.15;;
29662;SDS011;16578;53.266;7.920;2023-08-24T02:44:29;3.58;;;2.05;;
29662;SDS011;16578;53.266;7.920;2023-08-24T02:46:56;4.80;;;2.45;;
29662;SDS011;16578;53.266;7.920;2023-08-24T02:49:22;2.67;;;2.13;;
29662;SDS011;16578;53.266;7.920;2023-08-24T02:51:48;2.70;;;2.10;;
29662;SDS011;16578;53.266;7.920;2023-08-24T02:54:14;5.03;;;2.55;;
29662;SDS011;16578;53.266;7.920;2023-08-24T02:56:39;2.55;;;2.25;;
29662;SDS011;16578;53.266;7.920;2023-08-24T02:59:05;3.03;;;2.45;;
29662;SDS011;16578;53.266;7.920;2023-08-24T03:01:30;3.95;;;3.00;;
29662;SDS011;16578;53.266;7.920;2023-08-24T03:03:56;5.07;;;3.15;;
29662;SDS011;16578;53.266;7.920;2023-08-24T03:06:21;3.55;;;3.25;;
29662;SDS011;16578;53.266;7.920;2023-08-24T03:08:49;4.90;;;3.25;;
29662;SDS011;16578;53.266;7.920;2023-08-24T03:11:15;3.42;;;3.00;;
29662;SDS011;16578;53.266;7.920;2023-08-24T03:13:40;4.22;;;3.08;;
29662;SDS011;16578;53.266;7.920;2023-08-24T03:16:06;3.53;;;3.05;;
29662;SDS011;16578;53.266;7.920;2023-08-24T03:18:33;4.80;;;2.97;;
29662;SDS011;16578;53.266;7.920;2023-08-24T03:20:58;3.45;;;3.15;;
29662;SDS011;16578;53.266;7.920;2023-08-24T03:23:24;3.30;;;3.00;;
29662;SDS011;16578;53.266;7.920;2023-08-24T03:25:50;3.95;;;3.40;;
29662;SDS011;16578;53.266;7.920;2023-08-24T03:28:15;4.03;;;3.47;;
29662;SDS011;16578;53.266;7.920;2023-08-24T03:30:47;3.92;;;3.53;;
29662;SDS011;16578;53.266;7.920;2023-08-24T03:33:14;3.42;;;3.15;;
29662;SDS011;16578;53.266;7.920;2023-08-24T03:35:40;3.95;;;3.65;;
29662;SDS011;16578;53.266;7.920;2023-08-24T03:38:06;4.30;;;3.90;;
29662;SDS011;16578;53.266;7.920;2023-08-24T03:40:31;4.28;;;3.70;;
29662;SDS011;16578;53.266;7.920;2023-08-24T03:42:57;4.95;;;4.00;;
29662;SDS011;16578;53.266;7.920;2023-08-24T03:45:23;5.40;;;4.43;;
29662;SDS011;16578;53.266;7.920;2023-08-24T03:47:48;5.70;;;3.95;;
29662;SDS011;16578;53.266;7.920;2023-08-24T03:50:14;5.07;;;3.85;;
29662;SDS011;16578;53.266;7.920;2023-08-24T03:52:40;4.13;;;3.72;;
29662;SDS011;16578;53.266;7.920;2023-08-24T03:55:06;4.18;;;3.75;;
29662;SDS011;16578;53.266;7.920;2023-08-24T03:57:32;4.85;;;4.25;;
29662;SDS011;16578;53.266;7.920;2023-08-24T03:59:58;3.95;;;3.63;;
29662;SDS011;16578;53.266;7.920;2023-08-24T04:02:23;5.65;;;4.30;;
29662;SDS011;16578;53.266;7.920;2023-08-24T04:04:50;3.88;;;3.53;;
29662;SDS011;16578;53.266;7.920;2023-08-24T04:07:16;6.22;;;3.90;;
29662;SDS011;16578;53.266;7.920;2023-08-24T04:09:41;4.68;;;3.85;;
29662;SDS011;16578;53.266;7.920;2023-08-24T04:12:07;4.30;;;3.90;;
29662;SDS011;16578;53.266;7.920;2023-08-24T04:14:33;4.20;;;3.80;;
29662;SDS011;16578;53.266;7.920;2023-08-24T04:16:58;4.70;;;4.20;;
29662;SDS011;16578;53.266;7.920;2023-08-24T04:19:24;5.75;;;3.88;;
29662;SDS011;16578;53.266;7.920;2023-08-24T04:21:49;5.60;;;4.70;;
29662;SDS011;16578;53.266;7.920;2023-08-24T04:24:15;7.70;;;4.20;;
29662;SDS011;16578;53.266;7.920;2023-08-24T04:26:40;4.88;;;4.18;;
29662;SDS011;16578;53.266;7.920;2023-08-24T04:29:06;4.95;;;4.15;;
29662;SDS011;16578;53.266;7.920;2023-08-24T04:31:31;6.57;;;4.10;;
29662;SDS011;16578;53.266;7.920;2023-08-24T04:33:57;4.45;;;4.03;;
29662;SDS011;16578;53.266;7.920;2023-08-24T04:36:22;4.43;;;3.85;;
29662;SDS011;16578;53.266;7.920;2023-08-24T04:38:48;7.95;;;4.13;;
29662;SDS011;16578;53.266;7.920;2023-08-24T04:41:13;10.88;;;4.53;;
29662;SDS011;16578;53.266;7.920;2023-08-24T04:43:39;4.07;;;3.67;;
29662;SDS011;16578;53.266;7.920;2023-08-24T04:46:05;5.93;;;4.30;;
29662;SDS011;16578;53.266;7.920;2023-08-24T04:48:30;5.35;;;4.05;;
29662;SDS011;16578;53.266;7.920;2023-08-24T04:50:58;5.65;;;4.40;;
29662;SDS011;16578;53.266;7.920;2023-08-24T04:53:24;4.88;;;4.25;;
29662;SDS011;16578;53.266;7.920;2023-08-24T04:55:50;5.63;;;4.07;;
29662;SDS011;16578;53.266;7.920;2023-08-24T04:58:16;5.80;;;4.38;;
29662;SDS011;16578;53.266;7.920;2023-08-24T05:00:42;5.38;;;4.43;;
29662;SDS011;16578;53.266;7.920;2023-08-24T05:03:07;6.95;;;4.68;;
29662;SDS011;16578;53.266;7.920;2023-08-24T05:05:33;5.30;;;4.45;;
29662;SDS011;16578;53.266;7.920;2023-08-24T05:08:00;4.55;;;4.15;;
29662;SDS011;16578;53.266;7.920;2023-08-24T05:10:29;7.10;;;4.57;;
29662;SDS011;16578;53.266;7.920;2023-08-24T05:12:55;4.85;;;4.45;;
29662;SDS011;16578;53.266;7.920;2023-08-24T05:15:21;7.43;;;4.95;;
29662;SDS011;16578;53.266;7.920;2023-08-24T05:17:47;8.65;;;4.47;;
29662;SDS011;16578;53.266;7.920;2023-08-24T05:20:13;5.32;;;4.75;;
29662;SDS011;16578;53.266;7.920;2023-08-24T05:22:39;6.18;;;4.28;;
29662;SDS011;16578;53.266;7.920;2023-08-24T05:25:05;6.68;;;4.57;;
29662;SDS011;16578;53.266;7.920;2023-08-24T05:27:31;5.13;;;4.57;;
29662;SDS011;16578;53.266;7.920;2023-08-24T05:29:57;6.72;;;4.63;;
29662;SDS011;16578;53.266;7.920;2023-08-24T05:32:22;7.43;;;5.15;;
29662;SDS011;16578;53.266;7.920;2023-08-24T05:34:48;10.38;;;5.10;;
29662;SDS011;16578;53.266;7.920;2023-08-24T05:37:14;6.85;;;4.68;;
29662;SDS011;16578;53.266;7.920;2023-08-24T05:39:40;7.65;;;4.50;;
29662;SDS011;16578;53.266;7.920;2023-08-24T05:42:05;7.10;;;5.07;;
29662;SDS011;16578;53.266;7.920;2023-08-24T05:44:31;6.82;;;4.57;;
29662;SDS011;16578;53.266;7.920;2023-08-24T05:46:57;5.50;;;4.18;;
29662;SDS011;16578;53.266;7.920;2023-08-24T05:49:22;7.15;;;4.68;;
29662;SDS011;16578;53.266;7.920;2023-08-24T05:51:49;5.07;;;4.22;;
29662;SDS011;16578;53.266;7.920;2023-08-24T05:54:15;7.38;;;3.97;;
29662;SDS011;16578;53.266;7.920;2023-08-24T05:56:43;6.10;;;3.85;;
29662;SDS011;16578;53.266;7.920;2023-08-24T05:59:09;5.07;;;3.88;;
29662;SDS011;16578;53.266;7.920;2023-08-24T06:01:35;8.00;;;4.03;;
29662;SDS011;16578;53.266;7.920;2023-08-24T06:04:03;5.53;;;4.30;;
29662;SDS011;16578;53.266;7.920;2023-08-24T06:06:29;5.38;;;4.32;;
29662;SDS011;16578;53.266;7.920;2023-08-24T06:08:55;8.70;;;4.53;;
29662;SDS011;16578;53.266;7.920;2023-08-24T06:11:20;5.22;;;3.92;;
29662;SDS011;16578;53.266;7.920;2023-08-24T06:13:46;6.80;;;4.05;;
29662;SDS011;16578;53.266;7.920;2023-08-24T06:16:11;5.15;;;3.90;;
29662;SDS011;16578;53.266;7.920;2023-08-24T06:18:37;6.18;;;3.72;;
29662;SDS011;16578;53.266;7.920;2023-08-24T06:21:02;6.72;;;3.53;;
29662;SDS011;16578;53.266;7.920;2023-08-24T06:23:28;4.22;;;2.97;;
29662;SDS011;16578;53.266;7.920;2023-08-24T06:25:54;6.68;;;3.65;;
29662;SDS011;16578;53.266;7.920;2023-08-24T06:28:19;3.92;;;3.08;;
29662;SDS011;16578;53.266;7.920;2023-08-24T06:30:45;3.92;;;3.10;;
29662;SDS011;16578;53.266;7.920;2023-08-24T06:33:12;5.45;;;3.40;;
29662;SDS011;16578;53.266;7.920;2023-08-24T06:35:37;4.38;;;3.03;;
29662;SDS011;16578;53.266;7.920;2023-08-24T06:38:03;9.40;;;3.45;;
29662;SDS011;16578;53.266;7.920;2023-08-24T06:40:29;6.18;;;2.70;;
29662;SDS011;16578;53.266;7.920;2023-08-24T06:42:55;3.50;;;2.50;;
29662;SDS011;16578;53.266;7.920;2023-08-24T06:45:21;6.50;;;2.95;;
29662;SDS011;16578;53.266;7.920;2023-08-24T06:47:47;3.75;;;2.47;;
29662;SDS011;16578;53.266;7.920;2023-08-24T06:50:13;4.25;;;2.60;;
29662;SDS011;16578;53.266;7.920;2023-08-24T06:52:40;4.43;;;2.70;;
29662;SDS011;16578;53.266;7.920;2023-08-24T06:55:06;6.28;;;2.45;;
29662;SDS011;16578;53.266;7.920;2023-08-24T06:57:35;4.75;;;2.38;;
29662;SDS011;16578;53.266;7.920;2023-08-24T07:00:01;5.00;;;2.20;;
29662;SDS011;16578;53.266;7.920;2023-08-24T07:02:31;5.05;;;2.47;;
29662;SDS011;16578;53.266;7.920;2023-08-24T07:04:57;4.60;;;2.35;;
29662;SDS011;16578;53.266;7.920;2023-08-24T07:07:23;4.03;;;2.08;;
29662;SDS011;16578;53.266;7.920;2023-08-24T07:09:48;3.60;;;2.42;;
29662;SDS011;16578;53.266;7.920;2023-08-24T07:12:14;3.30;;;2.70;;
29662;SDS011;16578;53.266;7.920;2023-08-24T07:14:39;4.40;;;2.33;;
29662;SDS011;16578;53.266;7.920;2023-08-24T07:17:05;5.90;;;2.45;;
29662;SDS011;16578;53.266;7.920;2023-08-24T07:19:31;3.65;;;2.30;;
29662;SDS011;16578;53.266;7.920;2023-08-24T07:21:57;3.15;;;2.40;;
29662;SDS011;16578;53.266;7.920;2023-08-24T07:24:22;3.03;;;2.28;;
29662;SDS011;16578;53.266;7.920;2023-08-24T07:26:51;5.03;;;2.20;;
29662;SDS011;16578;53.266;7.920;2023-08-24T07:29:17;3.47;;;2.65;;
29662;SDS011;16578;53.266;7.920;2023-08-24T07:31:43;3.75;;;2.55;;
29662;SDS011;16578;53.266;7.920;2023-08-24T07:34:08;4.45;;;2.70;;
29662;SDS011;16578;53.266;7.920;2023-08-24T07:36:34;2.83;;;2.15;;
29662;SDS011;16578;53.266;7.920;2023-08-24T07:38:59;2.63;;;1.88;;
29662;SDS011;16578;53.266;7.920;2023-08-24T07:41:25;5.63;;;2.28;;
29662;SDS011;16578;53.266;7.920;2023-08-24T07:43:51;4.47;;;1.83;;
29662;SDS011;16578;53.266;7.920;2023-08-24T07:46:16;5.07;;;2.35;;
29662;SDS011;16578;53.266;7.920;2023-08-24T07:48:42;11.52;;;2.63;;
29662;SDS011;16578;53.266;7.920;2023-08-24T07:51:07;4.35;;;2.63;;
29662;SDS011;16578;53.266;7.920;2023-08-24T07:53:33;7.05;;;2.92;;
29662;SDS011;16578;53.266;7.920;2023-08-24T07:55:59;6.30;;;3.08;;
29662;SDS011;16578;53.266;7.920;2023-08-24T07:58:26;6.57;;;2.88;;
29662;SDS011;16578;53.266;7.920;2023-08-24T08:00:52;5.93;;;2.95;;
29662;SDS011;16578;53.266;7.920;2023-08-24T08:03:18;6.35;;;2.90;;
29662;SDS011;16578;53.266;7.920;2023-08-24T08:05:44;3.58;;;2.38;;
29662;SDS011;16578;53.266;7.920;2023-08-24T08:08:10;5.82;;;2.75;;
29662;SDS011;16578;53.266;7.920;2023-08-24T08:10:36;6.38;;;2.50;;
29662;SDS011;16578;53.266;7.920;2023-08-24T08:13:01;3.40;;;2.20;;
29662;SDS011;16578;53.266;7.920;2023-08-24T08:15:27;4.95;;;2.40;;
29662;SDS011;16578;53.266;7.920;2023-08-24T08:17:53;5.45;;;2.78;;
29662;SDS011;16578;53.266;7.920;2023-08-24T08:20:18;3.65;;;2.13;;
29662;SDS011;16578;53.266;7.920;2023-08-24T08:22:44;5.22;;;2.15;;
29662;SDS011;16578;53.266;7.920;2023-08-24T08:25:09;4.93;;;2.60;;
29662;SDS011;16578;53.266;7.920;2023-08-24T08:27:37;3.95;;;2.38;;
29662;SDS011;16578;53.266;7.920;2023-08-24T08:30:03;5.03;;;2.22;;
29662;SDS011;16578;53.266;7.920;2023-08-24T08:32:31;3.25;;;2.10;;
29662;SDS011;16578;53.266;7.920;2023-08-24T08:34:57;4.25;;;2.53;;
29662;SDS011;16578;53.266;7.920;2023-08-24T08:37:25;4.22;;;2.10;;
29662;SDS011;16578;53.266;7.920;2023-08-24T08:39:50;5.38;;;2.30;;
29662;SDS011;16578;53.266;7.920;2023-08-24T08:42:16;3.83;;;2.15;;
29662;SDS011;16578;53.266;7.920;2023-08-24T08:44:42;4.38;;;2.47;;
29662;SDS011;16578;53.266;7.920;2023-08-24T08:47:11;6.22;;;2.50;;
29662;SDS011;16578;53.266;7.920;2023-08-24T08:49:40;3.78;;;1.98;;
29662;SDS011;16578;53.266;7.920;2023-08-24T08:52:08;6.15;;;2.22;;
29662;SDS011;16578;53.266;7.920;2023-08-24T08:54:34;5.45;;;2.22;;
29662;SDS011;16578;53.266;7.920;2023-08-24T08:57:00;4.07;;;2.33;;
29662;SDS011;16578;53.266;7.920;2023-08-24T08:59:30;6.20;;;2.40;;
29662;SDS011;16578;53.266;7.920;2023-08-24T09:01:56;3.63;;;2.30;;
29662;SDS011;16578;53.266;7.920;2023-08-24T09:04:26;5.30;;;2.33;;
29662;SDS011;16578;53.266;7.920;2023-08-24T09:06:52;3.50;;;2.10;;
29662;SDS011;16578;53.266;7.920;2023-08-24T09:09:18;4.00;;;2.03;;
29662;SDS011;16578;53.266;7.920;2023-08-24T09:11:44;2.90;;;1.98;;
29662;SDS011;16578;53.266;7.920;2023-08-24T09:14:12;4.97;;;2.05;;
29662;SDS011;16578;53.266;7.920;2023-08-24T09:16:37;5.93;;;2.50;;
29662;SDS011;16578;53.266;7.920;2023-08-24T09:19:04;4.38;;;2.22;;
29662;SDS011;16578;53.266;7.920;2023-08-24T09:21:31;5.40;;;2.27;;
29662;SDS011;16578;53.266;7.920;2023-08-24T09:24:02;3.17;;;1.90;;
29662;SDS011;16578;53.266;7.920;2023-08-24T09:26:32;3.70;;;2.13;;
29662;SDS011;16578;53.266;7.920;2023-08-24T09:29:35;4.72;;;1.90;;
29662;SDS011;16578;53.266;7.920;2023-08-24T09:32:01;3.75;;;2.10;;
29662;SDS011;16578;53.266;7.920;2023-08-24T09:34:26;4.88;;;1.83;;
29662;SDS011;16578;53.266;7.920;2023-08-24T09:36:52;7.38;;;2.17;;
29662;SDS011;16578;53.266;7.920;2023-08-24T09:39:17;4.20;;;2.20;;
29662;SDS011;16578;53.266;7.920;2023-08-24T09:41:45;3.58;;;1.90;;
29662;SDS011;16578;53.266;7.920;2023-08-24T09:44:13;6.03;;;2.67;;
29662;SDS011;16578;53.266;7.920;2023-08-24T09:46:39;3.15;;;1.90;;
29662;SDS011;16578;53.266;7.920;2023-08-24T09:49:09;4.28;;;2.33;;
29662;SDS011;16578;53.266;7.920;2023-08-24T09:51:37;4.50;;;2.15;;
29662;SDS011;16578;53.266;7.920;2023-08-24T09:54:05;5.03;;;2.65;;
29662;SDS011;16578;53.266;7.920;2023-08-24T09:56:34;3.38;;;2.20;;
29662;SDS011;16578;53.266;7.920;2023-08-24T09:59:25;3.45;;;2.03;;
29662;SDS011;16578;53.266;7.920;2023-08-24T10:01:51;4.78;;;2.03;;
29662;SDS011;16578;53.266;7.920;2023-08-24T10:04:24;4.57;;;2.05;;
29662;SDS011;16578;53.266;7.920;2023-08-24T10:07:02;5.53;;;2.30;;
29662;SDS011;16578;53.266;7.920;2023-08-24T10:09:39;3.40;;;2.30;;
29662;SDS011;16578;53.266;7.920;2023-08-24T10:12:18;6.95;;;2.65;;
29662;SDS011;16578;53.266;7.920;2023-08-24T10:14:51;3.65;;;2.30;;
29662;SDS011;16578;53.266;7.920;2023-08-24T10:17:24;3.90;;;2.38;;
29662;SDS011;16578;53.266;7.920;2023-08-24T10:19:50;3.80;;;2.50;;
29662;SDS011;16578;53.266;7.920;2023-08-24T10:22:18;5.35;;;3.00;;
29662;SDS011;16578;53.266;7.920;2023-08-24T10:24:44;5.63;;;2.65;;
29662;SDS011;16578;53.266;7.920;2023-08-24T10:27:12;3.22;;;2.13;;
29662;SDS011;16578;53.266;7.920;2023-08-24T10:29:38;3.63;;;2.40;;
29662;SDS011;16578;53.266;7.920;2023-08-24T10:32:04;6.47;;;2.50;;
29662;SDS011;16578;53.266;7.920;2023-08-24T10:34:30;3.15;;;2.65;;
29662;SDS011;16578;53.266;7.920;2023-08-24T10:36:56;4.20;;;2.30;;
29662;SDS011;16578;53.266;7.920;2023-08-24T10:39:28;9.45;;;2.63;;
29662;SDS011;16578;53.266;7.920;2023-08-24T10:41:54;3.63;;;2.25;;
29662;SDS011;16578;53.266;7.920;2023-08-24T10:44:36;4.05;;;2.63;;
29662;SDS011;16578;53.266;7.920;2023-08-24T10:47:20;6.40;;;3.08;;
29662;SDS011;16578;53.266;7.920;2023-08-24T10:54:46;3.85;;;2.20;;
29662;SDS011;16578;53.266;7.920;2023-08-24T11:00:09;8.18;;;2.85;;
29662;SDS011;16578;53.266;7.920;2023-08-24T11:02:47;5.13;;;3.05;;
29662;SDS011;16578;53.266;7.920;2023-08-24T11:05:29;4.65;;;2.58;;
29662;SDS011;16578;53.266;7.920;2023-08-24T11:08:04;2.72;;;2.05;;
29662;SDS011;16578;53.266;7.920;2023-08-24T11:10:31;3.40;;;2.45;;
29662;SDS011;16578;53.266;7.920;2023-08-24T11:13:15;2.55;;;2.15;;
29662;SDS011;16578;53.266;7.920;2023-08-24T11:20:44;6.03;;;2.88;;
29662;SDS011;16578;53.266;7.920;2023-08-24T11:23:17;5.22;;;2.83;;
29662;SDS011;16578;53.266;7.920;2023-08-24T11:25:44;6.35;;;3.08;;
29662;SDS011;16578;53.266;7.920;2023-08-24T11:28:11;5.28;;;3.00;;
29662;SDS011;16578;53.266;7.920;2023-08-24T11:30:41;6.30;;;3.58;;
29662;SDS011;16578;53.266;7.920;2023-08-24T11:33:07;4.95;;;3.20;;
29662;SDS011;16578;53.266;7.920;2023-08-24T11:35:36;5.55;;;3.03;;
29662;SDS011;16578;53.266;7.920;2023-08-24T11:38:02;4.10;;;2.70;;
29662;SDS011;16578;53.266;7.920;2023-08-24T11:40:28;4.35;;;2.55;;
29662;SDS011;16578;53.266;7.920;2023-08-24T11:42:54;8.57;;;2.92;;
29662;SDS011;16578;53.266;7.920;2023-08-24T11:45:23;3.28;;;2.47;;
29662;SDS011;16578;53.266;7.920;2023-08-24T11:47:54;4.75;;;2.42;;
29662;SDS011;16578;53.266;7.920;2023-08-24T11:50:22;4.60;;;3.47;;
29662;SDS011;16578;53.266;7.920;2023-08-24T11:52:48;6.07;;;3.20;;
29662;SDS011;16578;53.266;7.920;2023-08-24T11:55:14;3.70;;;2.80;;
29662;SDS011;16578;53.266;7.920;2023-08-24T11:57:39;3.08;;;2.72;;
29662;SDS011;16578;53.266;7.920;2023-08-24T12:00:06;4.45;;;2.78;;
29662;SDS011;16578;53.266;7.920;2023-08-24T12:02:34;4.07;;;2.83;;
29662;SDS011;16578;53.266;7.920;2023-08-24T12:04:59;3.22;;;2.38;;
29662;SDS011;16578;53.266;7.920;2023-08-24T12:07:26;7.70;;;2.92;;
29662;SDS011;16578;53.266;7.920;2023-08-24T12:09:52;6.00;;;3.22;;
29662;SDS011;16578;53.266;7.920;2023-08-24T12:12:19;3.72;;;2.80;;
29662;SDS011;16578;53.266;7.920;2023-08-24T12:14:46;6.75;;;3.30;;
29662;SDS011;16578;53.266;7.920;2023-08-24T12:17:12;5.15;;;3.08;;
29662;SDS011;16578;53.266;7.920;2023-08-24T12:19:45;3.83;;;3.00;;
29662;SDS011;16578;53.266;7.920;2023-08-24T12:22:21;7.15;;;3.05;;
29662;SDS011;16578;53.266;7.920;2023-08-24T12:24:47;4.18;;;2.42;;
29662;SDS011;16578;53.266;7.920;2023-08-24T12:27:19;5.63;;;3.08;;
29662;SDS011;16578;53.266;7.920;2023-08-24T12:29:49;5.55;;;2.78;;
29662;SDS011;16578;53.266;7.920;2023-08-24T12:32:16;3.80;;;2.55;;
29662;SDS011;16578;53.266;7.920;2023-08-24T12:34:45;6.18;;;3.50;;
29662;SDS011;16578;53.266;7.920;2023-08-24T12:37:13;3.13;;;2.63;;
29662;SDS011;16578;53.266;7.920;2023-08-24T12:39:39;4.40;;;2.53;;
29662;SDS011;16578;53.266;7.920;2023-08-24T12:42:05;2.97;;;2.45;;
29662;SDS011;16578;53.266;7.920;2023-08-24T12:44:31;3.88;;;2.88;;
29662;SDS011;16578;53.266;7.920;2023-08-24T12:46:57;5.03;;;3.25;;
29662;SDS011;16578;53.266;7.920;2023-08-24T12:49:24;4.70;;;3.15;;
29662;SDS011;16578;53.266;7.920;2023-08-24T12:51:49;9.35;;;3.42;;
29662;SDS011;16578;53.266;7.920;2023-08-24T12:54:15;4.70;;;2.95;;
29662;SDS011;16578;53.266;7.920;2023-08-24T12:56:40;3.30;;;2.80;;
29662;SDS011;16578;53.266;7.920;2023-08-24T12:59:06;3.10;;;2.78;;
29662;SDS011;16578;53.266;7.920;2023-08-24T13:01:32;3.20;;;2.70;;
29662;SDS011;16578;53.266;7.920;2023-08-24T13:03:57;6.07;;;2.72;;
29662;SDS011;16578;53.266;7.920;2023-08-24T13:06:23;5.78;;;3.47;;
29662;SDS011;16578;53.266;7.920;2023-08-24T13:08:49;4.30;;;3.20;;
29662;SDS011;16578;53.266;7.920;2023-08-24T13:11:14;3.72;;;3.10;;
29662;SDS011;16578;53.266;7.920;2023-08-24T13:13:40;5.20;;;2.88;;
29662;SDS011;16578;53.266;7.920;2023-08-24T13:16:06;5.50;;;2.70;;
29662;SDS011;16578;53.266;7.920;2023-08-24T13:18:32;4.07;;;3.03;;
29662;SDS011;16578;53.266;7.920;2023-08-24T13:20:58;3.83;;;2.92;;
29662;SDS011;16578;53.266;7.920;2023-08-24T13:23:23;3.80;;;3.00;;
29662;SDS011;16578;53.266;7.920;2023-08-24T13:25:49;5.07;;;2.78;;
29662;SDS011;16578;53.266;7.920;2023-08-24T13:28:14;3.80;;;2.72;;
29662;SDS011;16578;53.266;7.920;2023-08-24T13:30:40;4.85;;;3.30;;
29662;SDS011;16578;53.266;7.920;2023-08-24T13:33:05;6.47;;;2.95;;
29662;SDS011;16578;53.266;7.920;2023-08-24T13:35:31;5.20;;;2.95;;
29662;SDS011;16578;53.266;7.920;2023-08-24T13:37:57;3.30;;;2.70;;
29662;SDS011;16578;53.266;7.920;2023-08-24T13:40:23;4.65;;;2.80;;
29662;SDS011;16578;53.266;7.920;2023-08-24T13:42:48;4.45;;;3.30;;
29662;SDS011;16578;53.266;7.920;2023-08-24T13:45:14;4.45;;;3.10;;
29662;SDS011;16578;53.266;7.920;2023-08-24T13:47:40;3.45;;;2.92;;
29662;SDS011;16578;53.266;7.920;2023-08-24T13:50:06;7.53;;;3.28;;
29662;SDS011;16578;53.266;7.920;2023-08-24T13:52:32;5.72;;;2.95;;
29662;SDS011;16578;53.266;7.920;2023-08-24T13:54:58;3.20;;;2.90;;
29662;SDS011;16578;53.266;7.920;2023-08-24T13:57:24;4.28;;;2.55;;
29662;SDS011;16578;53.266;7.920;2023-08-24T13:59:49;4.68;;;2.95;;
29662;SDS011;16578;53.266;7.920;2023-08-24T14:02:15;6.55;;;3.33;;
29662;SDS011;16578;53.266;7.920;2023-08-24T14:04:41;3.97;;;3.20;;
29662;SDS011;16578;53.266;7.920;2023-08-24T14:07:06;3.25;;;2.88;;
29662;SDS011;16578;53.266;7.920;2023-08-24T14:09:32;7.13;;;2.67;;
29662;SDS011;16578;53.266;7.920;2023-08-24T14:11:58;3.95;;;3.05;;
29662;SDS011;16578;53.266;7.920;2023-08-24T14:14:23;3.60;;;3.03;;
29662;SDS011;16578;53.266;7.920;2023-08-24T14:16:53;7.30;;;3.38;;
29662;SDS011;16578;53.266;7.920;2023-08-24T14:19:20;5.57;;;3.08;;
29662;SDS011;16578;53.266;7.920;2023-08-24T14:21:45;3.80;;;3.08;;
29662;SDS011;16578;53.266;7.920;2023-08-24T14:24:11;4.70;;;3.10;;
29662;SDS011;16578;53.266;7.920;2023-08-24T14:26:36;4.13;;;3.00;;
29662;SDS011;16578;53.266;7.920;2023-08-24T14:29:04;3.50;;;2.90;;
29662;SDS011;16578;53.266;7.920;2023-08-24T14:31:29;3.47;;;3.17;;
29662;SDS011;16578;53.266;7.920;2023-08-24T14:33:55;4.10;;;2.92;;
29662;SDS011;16578;53.266;7.920;2023-08-24T14:36:21;4.45;;;2.70;;
29662;SDS011;16578;53.266;7.920;2023-08-24T14:38:48;4.45;;;2.78;;
29662;SDS011;16578;53.266;7.920;2023-08-24T14:41:14;3.55;;;2.90;;
29662;SDS011;16578;53.266;7.920;2023-08-24T14:43:41;7.85;;;3.25;;
29662;SDS011;16578;53.266;7.920;2023-08-24T14:46:07;3.33;;;2.63;;
29662;SDS011;16578;53.266;7.920;2023-08-24T14:48:33;4.80;;;2.92;;
29662;SDS011;16578;53.266;7.920;2023-08-24T14:50:59;4.50;;;2.80;;
29662;SDS011;16578;53.266;7.920;2023-08-24T14:53:25;4.13;;;2.65;;
29662;SDS011;16578;53.266;7.920;2023-08-24T14:55:52;4.47;;;3.03;;
29662;SDS011;16578;53.266;7.920;2023-08-24T14:58:20;3.65;;;2.58;;
29662;SDS011;16578;53.266;7.920;2023-08-24T15:00:46;5.60;;;2.90;;